Tuskahoma, Oklahoma
Current Conditions -  °F | °C
As of 2:53 PM on Friday 24 Oct 2014 (Local Time) from KMLC Reporting Station
Clear Clear  
Wind Chill: 26°   Ceiling: Unl
Heat Index: 27°   Visibility: 10mi
Dew Point: 15°   Wind: 10mph
Humidity: 50%   Direction: 210°SSW
Pressure: 30.08"   Gusts: NA
Location:  34.62°N, 95.28°W
Report Text: KMLC 241953Z AUTO 21009KT 10SM CLR 26/15 A3008 RMK AO2 SLP179 T02610150
Loading
Personal Weather Stations






























Interactive Weather Map
Tropical Storm Tracking
New forecast layout! Learn more

10-Day Weather Forecast

Advertisements
Track Severe Weather on mobile